Mirage, Nebraska
Current Conditions -  °F | °C
As of 8:35 AM on Saturday 25 Oct 2014 (Local Time) from KHDE Reporting Station
Clear Clear  
Wind Chill: 44°   Ceiling: Unl
Heat Index: 44°   Visibility: 10mi
Dew Point: 41°   Wind: 0mph
Humidity: 89%   Direction: NA
Pressure: 30.11"   Gusts: NA
Location:  40.5474°N, 99.1227°W
Report Text: KHDE 251335Z AUTO 00000KT 10SM CLR 07/05 A3011 RMK AO2 T00650048
Loading
Personal Weather Stations






























Interactive Weather Map
Tropical Storm Tracking
New forecast layout! Learn more

10-Day Weather Forecast

Advertisements
Track Severe Weather on mobile